Terminal Aerodrome Forecast
Issued by NWS Upton, NY

Home | Current Version | Previous Version | Text Only | Print | Product List | Glossary On
Versions: 1 2 3 4 5 6 7 8 9 10 11 12 13 14 15 16 17 18 19 20 21 22 23 24 25 26 27 28
000
FTUS41 KOKX 251700
TAFLGA
TAF
KLGA 251736Z 2518/2618 29021G32KT P6SM BKN050
     FM252100 29016G24KT P6SM SCT050
     FM260100 28012KT P6SM SKC
     FM260700 27009KT P6SM SKC
     FM261400 27010KT P6SM FEW025=

USA.gov is the U.S. government's official web portal to all federal, state and local government web resources and services.